Time;durP1;ratioP1;P1;durP2;ratioP2;P2;SDS_P1;SDS_P2;PMS_P1;PMS_P2;Temp;Humidity;BMP_temperature;BMP_pressure;BME280_temperature;BME280_humidity;BME280_pressure;Samples;Min_cycle;Max_cycle;Signal;HPM_P1;HPM_P2
2021/12/12 00:02:20;;;;;;;77.20;31.33;;;1.10;99.90;;;;;;4741816;28;9999905;-69
2021/12/12 00:04:48;;;;;;;69.72;29.38;;;1.10;99.90;;;;;;5099948;28;20031;-70
2021/12/12 00:07:21;;;;;;;80.97;33.10;;;1.00;99.90;;;;;;5106972;28;20421;-69
2021/12/12 00:09:52;;;;;;;72.60;30.10;;;1.00;99.90;;;;;;5106657;28;20396;-70
2021/12/12 00:12:22;;;;;;;67.40;29.52;;;0.90;99.90;;;;;;5110047;28;20066;-69
2021/12/12 00:14:48;;;;;;;66.68;29.52;;;0.90;99.90;;;;;;5106970;28;20031;-70
2021/12/12 00:17:14;;;;;;;69.85;30.13;;;0.90;99.90;;;;;;5098959;28;20084;-71
2021/12/12 00:19:40;;;;;;;72.68;30.80;;;0.90;99.90;;;;;;5098703;28;20034;-70
2021/12/12 00:22:10;;;;;;;76.82;30.88;;;1.00;99.90;;;;;;5101161;28;20504;-70
2021/12/12 00:24:38;;;;;;;68.82;29.42;;;1.00;99.90;;;;;;5106622;28;20036;-70
2021/12/12 00:27:04;;;;;;;73.50;29.73;;;1.00;99.90;;;;;;5109637;28;20118;-70
2021/12/12 00:29:30;;;;;;;70.80;29.65;;;1.00;99.90;;;;;;5108915;28;20027;-70
2021/12/12 00:31:59;;;;;;;67.95;28.80;;;1.10;99.90;;;;;;5098942;28;20040;-70
2021/12/12 00:34:27;;;;;;;71.53;31.13;;;1.10;99.90;;;;;;5098100;28;20572;-70
2021/12/12 00:36:53;;;;;;;71.50;30.95;;;1.20;99.90;;;;;;5095746;28;20043;-70
2021/12/12 00:39:23;;;;;;;67.70;30.13;;;1.20;99.90;;;;;;5106782;28;20032;-70
2021/12/12 00:42:09;;;;;;;76.03;31.00;;;1.20;99.90;;;;;;5095322;28;20541;-70
2021/12/12 00:44:38;;;;;;;67.53;30.55;;;1.10;99.90;;;;;;5095794;28;20091;-70
2021/12/12 00:47:08;;;;;;;72.32;32.08;;;1.10;99.90;;;;;;5092748;28;20128;-70
2021/12/12 00:49:37;;;;;;;70.40;30.75;;;1.10;99.90;;;;;;5103804;28;20039;-70
2021/12/12 00:52:06;;;;;;;70.03;30.13;;;1.10;99.90;;;;;;5097998;28;20485;-69
2021/12/12 00:54:33;;;;;;;76.05;31.85;;;1.10;99.90;;;;;;5108107;28;20040;-70
2021/12/12 00:57:03;;;;;;;85.20;33.08;;;1.00;99.90;;;;;;5094665;28;20122;-70
2021/12/12 00:59:29;;;;;;;79.40;31.80;;;1.00;99.90;;;;;;5101334;28;20032;-70
2021/12/12 01:01:56;;;;;;;74.53;33.10;;;1.00;99.90;;;;;;5104433;28;20186;-70
2021/12/12 01:04:29;;;;;;;78.70;31.45;;;1.00;99.90;;;;;;5093059;28;20404;-69
2021/12/12 01:06:58;;;;;;;78.78;32.17;;;1.10;99.90;;;;;;5099020;28;20024;-70
2021/12/12 01:09:27;;;;;;;73.45;32.70;;;1.10;99.90;;;;;;5105273;28;20036;-70
2021/12/12 01:11:56;;;;;;;72.43;31.38;;;1.00;99.90;;;;;;5094101;28;20125;-69
2021/12/12 01:14:37;;;;;;;75.43;32.47;;;1.00;99.90;;;;;;5099127;28;20119;-69
2021/12/12 01:17:10;;;;;;;77.15;32.47;;;1.00;99.90;;;;;;5098989;28;20036;-70
2021/12/12 01:19:59;;;;;;;76.35;32.95;;;0.90;99.90;;;;;;5099153;28;20055;-70
2021/12/12 01:22:32;;;;;;;82.38;33.72;;;0.90;99.90;;;;;;5097015;28;20040;-70
2021/12/12 01:25:01;;;;;;;84.72;33.92;;;0.90;99.90;;;;;;5094353;28;20437;-69
2021/12/12 01:27:27;;;;;;;80.25;32.97;;;0.90;99.90;;;;;;5092830;28;20036;-70
2021/12/12 01:29:53;;;;;;;88.88;35.60;;;0.90;99.90;;;;;;5104513;28;20020;-70
2021/12/12 01:32:28;;;;;;;86.65;33.72;;;0.90;99.90;;;;;;5108948;28;20355;-70
2021/12/12 01:34:57;;;;;;;83.10;33.63;;;1.00;99.90;;;;;;5113132;28;20092;-70
2021/12/12 01:40:02;;;;;;;83.75;34.90;;;1.20;99.90;;;;;;5101645;28;20492;-70
2021/12/12 01:42:30;;;;;;;86.32;35.08;;;1.20;99.90;;;;;;5108025;28;20382;-70
2021/12/12 01:45:01;;;;;;;84.63;34.58;;;1.30;99.90;;;;;;5105460;28;20027;-70
2021/12/12 01:47:37;;;;;;;88.97;35.65;;;1.30;99.90;;;;;;5107664;28;20046;-70
2021/12/12 01:50:09;;;;;;;90.70;35.78;;;1.30;99.90;;;;;;5098922;28;20020;-70
2021/12/12 01:52:36;;;;;;;82.35;34.67;;;1.40;99.90;;;;;;5096514;28;20031;-71
2021/12/12 01:55:23;;;;;;;81.32;34.22;;;1.40;99.90;;;;;;5097740;28;20031;-70
2021/12/12 01:57:50;;;;;;;92.68;35.50;;;1.40;99.90;;;;;;5102488;28;20023;-69
2021/12/12 02:00:26;;;;;;;82.75;35.20;;;1.40;99.90;;;;;;5107842;28;20024;-70
2021/12/12 02:02:52;;;;;;;91.20;35.78;;;1.40;99.90;;;;;;5103493;28;20039;-70
2021/12/12 02:05:20;;;;;;;88.18;35.53;;;1.40;99.90;;;;;;5100744;28;20405;-70
2021/12/12 02:07:52;;;;;;;81.55;34.40;;;1.40;99.90;;;;;;5093022;28;20023;-69
2021/12/12 02:10:23;;;;;;;80.40;33.42;;;1.40;99.90;;;;;;5095021;28;20028;-70
2021/12/12 02:12:49;;;;;;;83.07;33.55;;;1.40;99.90;;;;;;5094262;28;20106;-70
2021/12/12 02:15:16;;;;;;;85.30;34.03;;;1.40;99.90;;;;;;5099838;28;20516;-70
2021/12/12 02:17:46;;;;;;;80.68;34.55;;;1.40;99.90;;;;;;5111355;28;20019;-70
2021/12/12 02:20:29;;;;;;;83.30;34.83;;;1.30;99.90;;;;;;5108130;27;20553;-70
2021/12/12 02:36:30;;;;;;;79.78;35.15;;;1.40;99.90;;;;;;5104551;27;20050;-69
2021/12/12 02:38:57;;;;;;;92.53;37.88;;;1.50;99.90;;;;;;5101096;27;20112;-70
2021/12/12 02:41:25;;;;;;;83.45;35.13;;;1.60;99.90;;;;;;5101461;28;20134;-70
2021/12/12 02:44:01;;;;;;;77.03;35.33;;;1.60;99.90;;;;;;5100507;28;20116;-70
2021/12/12 02:46:32;;;;;;;80.35;35.38;;;1.60;99.90;;;;;;5101117;27;20439;-70
2021/12/12 02:49:11;;;;;;;76.95;33.65;;;1.70;99.90;;;;;;5102653;28;20051;-70
2021/12/12 02:51:42;;;;;;;74.18;33.58;;;1.70;99.90;;;;;;5094624;27;20741;-71
2021/12/12 02:54:09;;;;;;;65.05;31.98;;;1.80;99.90;;;;;;5098275;28;20032;-70
2021/12/12 02:56:42;;;;;;;64.13;30.08;;;1.80;99.90;;;;;;5107154;28;20035;-70
2021/12/12 02:59:12;;;;;;;61.13;30.05;;;1.90;99.90;;;;;;5097919;28;20036;-70
2021/12/12 03:02:04;;;;;;;58.00;29.77;;;1.90;99.90;;;;;;5098051;28;20039;-70
2021/12/12 03:04:30;;;;;;;60.45;28.00;;;2.00;99.90;;;;;;5102683;27;20032;-70
2021/12/12 03:06:56;;;;;;;55.22;28.38;;;2.00;99.90;;;;;;5098156;28;20020;-70
2021/12/12 03:09:37;;;;;;;56.60;27.55;;;2.00;99.90;;;;;;5102195;27;20540;-70
2021/12/12 03:12:15;;;;;;;50.78;26.00;;;1.90;99.90;;;;;;5100636;28;20089;-70
2021/12/12 03:14:42;;;;;;;50.03;23.35;;;1.90;99.90;;;;;;5096130;27;20106;-71
2021/12/12 03:17:18;;;;;;;45.08;23.40;;;1.90;99.90;;;;;;5091393;28;20028;-70
2021/12/12 03:19:49;;;;;;;43.88;22.40;;;1.90;99.90;;;;;;5103335;28;20042;-70
2021/12/12 03:22:16;;;;;;;43.92;21.88;;;2.00;99.90;;;;;;5108699;27;20088;-70
2021/12/12 03:24:42;;;;;;;47.80;21.30;;;1.90;99.90;;;;;;5100281;27;20621;-70
2021/12/12 03:27:08;;;;;;;44.45;20.80;;;1.90;99.90;;;;;;5099223;28;20035;-70
2021/12/12 03:29:35;;;;;;;41.78;20.00;;;1.90;99.90;;;;;;5092937;28;20038;-70
2021/12/12 03:32:06;;;;;;;40.00;19.55;;;2.00;99.90;;;;;;5097931;28;20482;-69
2021/12/12 03:34:34;;;;;;;33.58;17.42;;;2.00;99.90;;;;;;5100890;28;20541;-70
2021/12/12 03:37:03;;;;;;;34.08;17.30;;;2.00;99.90;;;;;;5094402;27;20066;-70
2021/12/12 03:39:32;;;;;;;34.08;16.85;;;2.00;99.90;;;;;;5096938;28;20043;-69
2021/12/12 03:42:02;;;;;;;32.78;15.10;;;2.00;99.90;;;;;;5101989;27;20039;-68
2021/12/12 03:44:31;;;;;;;33.30;15.02;;;2.00;99.90;;;;;;5102169;28;20081;-69
2021/12/12 03:47:04;;;;;;;29.63;15.77;;;2.00;99.90;;;;;;5105819;28;20032;-69
2021/12/12 03:49:32;;;;;;;35.45;14.38;;;2.00;99.90;;;;;;5102222;27;20027;-69
2021/12/12 03:51:58;;;;;;;25.02;13.93;;;1.90;99.90;;;;;;5101262;27;20115;-69
2021/12/12 03:54:23;;;;;;;31.35;13.00;;;2.00;99.90;;;;;;5091315;28;20051;-69
2021/12/12 03:56:49;;;;;;;27.67;13.00;;;2.00;99.90;;;;;;5091702;28;20028;-70
2021/12/12 03:59:16;;;;;;;31.02;12.30;;;2.00;99.90;;;;;;5103096;28;20034;-70
2021/12/12 04:01:49;;;;;;;25.98;11.98;;;2.00;99.90;;;;;;5101356;28;20291;-70
2021/12/12 04:04:24;;;;;;;;;;;2.00;99.90;;;;;;5101958;27;20451;-70
2021/12/12 04:06:51;;;;;;;22.85;11.05;;;2.00;99.90;;;;;;5099507;27;19920;-69
2021/12/12 04:09:18;;;;;;;23.75;11.43;;;2.00;99.90;;;;;;5100478;27;20039;-70
2021/12/12 04:11:48;;;;;;;31.25;11.35;;;1.90;99.90;;;;;;5094452;28;20058;-70
2021/12/12 04:14:15;;;;;;;26.67;11.60;;;1.80;99.90;;;;;;5093393;27;20035;-70
2021/12/12 04:16:43;;;;;;;24.48;11.38;;;1.90;99.90;;;;;;5093439;28;20886;-70
2021/12/12 04:19:10;;;;;;;30.98;12.18;;;1.90;99.90;;;;;;5109552;28;20028;-69
2021/12/12 04:21:37;;;;;;;24.92;11.60;;;1.90;99.90;;;;;;5095866;27;20036;-70
2021/12/12 04:24:04;;;;;;;25.50;11.82;;;1.90;99.90;;;;;;5097255;28;20035;-70
2021/12/12 04:26:35;;;;;;;27.83;11.40;;;1.80;99.90;;;;;;5097555;28;20034;-70
2021/12/12 04:29:12;;;;;;;20.65;11.38;;;1.90;99.90;;;;;;5101584;27;20035;-70
2021/12/12 04:31:42;;;;;;;28.38;11.80;;;1.80;99.90;;;;;;5091178;28;20020;-70
2021/12/12 04:34:09;;;;;;;26.92;12.10;;;1.80;99.90;;;;;;5100793;28;20043;-70
2021/12/12 04:36:43;;;;;;;29.55;11.98;;;1.80;99.90;;;;;;5103461;28;20034;-70
2021/12/12 04:39:15;;;;;;;23.23;11.85;;;1.90;99.90;;;;;;5089912;28;20489;-70
2021/12/12 04:41:43;;;;;;;26.58;12.00;;;1.90;99.90;;;;;;5097445;28;20108;-70
2021/12/12 04:44:09;;;;;;;23.27;11.45;;;1.80;99.90;;;;;;5088533;28;20031;-70
2021/12/12 04:49:56;;;;;;;26.17;12.63;;;1.90;99.90;;;;;;5108410;28;20035;-70
2021/12/12 04:52:41;;;;;;;32.45;13.45;;;1.90;99.90;;;;;;5096356;28;20104;-69
2021/12/12 04:55:12;;;;;;;32.60;13.25;;;1.90;99.90;;;;;;5092531;28;20122;-69
2021/12/12 04:58:06;;;;;;;32.47;13.95;;;1.90;99.90;;;;;;5103890;28;20366;-69
2021/12/12 05:00:40;;;;;;;29.13;14.13;;;1.80;99.90;;;;;;5100976;28;20020;-69
2021/12/12 05:03:31;;;;;;;29.95;14.55;;;1.80;99.90;;;;;;5094681;28;20024;-70
2021/12/12 05:06:26;;;;;;;29.48;14.43;;;1.80;99.90;;;;;;5062190;28;20443;-69
2021/12/12 05:09:09;;;;;;;28.67;13.50;;;1.80;99.90;;;;;;5071102;28;20550;-69
2021/12/12 05:12:03;;;;;;;25.88;14.32;;;1.80;99.90;;;;;;5094353;28;20550;-70
2021/12/12 05:14:35;;;;;;;34.53;15.05;;;1.80;99.90;;;;;;5096873;28;20012;-69
2021/12/12 05:17:13;;;;;;;24.67;14.20;;;1.80;99.90;;;;;;5109003;28;20106;-70
2021/12/12 05:19:45;;;;;;;32.80;15.13;;;1.80;99.90;;;;;;5100541;28;20036;-70
2021/12/12 05:22:17;;;;;;;34.78;15.30;;;1.80;99.90;;;;;;5100279;28;20035;-70
2021/12/12 05:24:47;;;;;;;32.43;15.87;;;1.80;99.90;;;;;;5102384;28;20028;-70
2021/12/12 05:27:17;;;;;;;30.98;15.27;;;1.80;99.90;;;;;;5102064;28;20286;-70
2021/12/12 05:29:49;;;;;;;31.80;15.90;;;1.80;99.90;;;;;;5093733;28;20039;-70
2021/12/12 05:32:17;;;;;;;22.52;10.82;;;1.80;99.90;;;;;;5101515;28;20032;-69
2021/12/12 05:34:48;;;;;;;36.00;15.80;;;1.80;99.90;;;;;;5082728;28;20040;-70
2021/12/12 05:37:15;;;;;;;36.58;15.27;;;1.80;99.90;;;;;;5079396;28;20192;-69
2021/12/12 05:39:42;;;;;;;27.02;14.43;;;1.90;99.90;;;;;;5083279;28;20040;-70
2021/12/12 05:42:08;;;;;;;31.60;15.02;;;1.90;99.90;;;;;;5069238;28;20032;-69
2021/12/12 05:44:34;;;;;;;30.55;14.60;;;1.80;99.90;;;;;;5078191;28;20066;-70
2021/12/12 05:47:03;;;;;;;30.27;13.93;;;1.90;99.90;;;;;;5070672;28;20039;-70
2021/12/12 05:49:29;;;;;;;29.25;14.25;;;1.80;99.90;;;;;;5070803;28;20025;-69
2021/12/12 05:51:55;;;;;;;27.02;14.35;;;1.90;99.90;;;;;;5079314;28;20032;-69
2021/12/12 05:54:23;;;;;;;33.00;15.00;;;1.80;99.90;;;;;;5071867;28;20025;-69
2021/12/12 05:56:50;;;;;;;26.35;13.63;;;1.80;99.90;;;;;;5070081;28;20240;-70
2021/12/12 05:59:16;;;;;;;30.05;13.95;;;1.80;99.90;;;;;;5071321;28;20036;-70
2021/12/12 06:01:43;;;;;;;31.15;13.48;;;1.80;99.90;;;;;;5072665;28;20040;-70
2021/12/12 06:04:10;;;;;;;25.42;13.63;;;1.80;99.90;;;;;;5069678;28;20050;-69
2021/12/12 06:06:40;;;;;;;29.80;13.73;;;1.80;99.90;;;;;;5069488;28;20032;-69
2021/12/12 06:09:09;;;;;;;29.35;14.05;;;1.70;99.90;;;;;;5068812;28;22613;-69
2021/12/12 06:11:38;;;;;;;26.65;13.55;;;1.70;99.90;;;;;;5081667;28;20027;-69
2021/12/12 06:14:07;;;;;;;32.53;13.57;;;1.70;99.90;;;;;;5082136;28;20508;-70
2021/12/12 06:16:34;;;;;;;25.40;12.63;;;1.80;99.90;;;;;;5082352;28;20039;-69
2021/12/12 06:19:15;;;;;;;25.00;12.10;;;1.70;99.90;;;;;;5077913;28;20055;-70
2021/12/12 06:21:41;;;;;;;26.02;12.07;;;1.80;99.90;;;;;;5079392;28;20035;-69
2021/12/12 06:24:07;;;;;;;27.38;11.88;;;1.80;99.90;;;;;;5079878;28;20178;-70
2021/12/12 06:26:34;;;;;;;27.50;11.68;;;1.80;99.90;;;;;;5078579;28;20020;-69
2021/12/12 06:29:00;;;;;;;23.23;11.65;;;1.80;99.90;;;;;;5077503;28;20039;-70
2021/12/12 06:31:26;;;;;;;24.48;13.20;;;1.80;99.90;;;;;;5076698;28;20522;-70
2021/12/12 06:33:54;;;;;;;25.75;14.02;;;1.80;99.90;;;;;;5090936;28;20039;-69
2021/12/12 06:36:19;;;;;;;23.63;13.30;;;1.90;99.90;;;;;;5105617;28;20032;-69
2021/12/12 06:38:49;;;;;;;27.00;12.73;;;1.90;99.90;;;;;;5093688;27;20024;-70
2021/12/12 06:41:15;;;;;;;29.15;13.65;;;1.90;99.90;;;;;;5092877;28;20110;-70
2021/12/12 06:43:42;;;;;;;27.63;13.45;;;1.90;99.90;;;;;;5092554;27;20509;-70
2021/12/12 06:46:09;;;;;;;29.08;13.07;;;2.00;99.90;;;;;;5100967;28;20439;-70
2021/12/12 06:48:37;;;;;;;29.20;12.30;;;2.00;99.90;;;;;;5095649;28;20107;-70
2021/12/12 06:51:03;;;;;;;31.08;13.15;;;2.00;99.90;;;;;;5091108;28;20061;-70
2021/12/12 06:53:33;;;;;;;27.38;13.05;;;2.00;99.90;;;;;;5099925;27;20020;-70
2021/12/12 06:56:00;;;;;;;28.00;12.53;;;2.00;99.90;;;;;;4738613;28;10000553;-70
2021/12/12 06:58:28;;;;;;;26.25;12.60;;;2.00;99.90;;;;;;5093891;28;20031;-70
2021/12/12 07:01:03;;;;;;;31.88;12.95;;;2.00;99.90;;;;;;5087090;28;20024;-71
2021/12/12 07:03:31;;;;;;;34.30;15.18;;;2.10;99.90;;;;;;5093856;28;20081;-70
2021/12/12 07:05:57;;;;;;;28.08;13.07;;;2.10;99.90;;;;;;5091540;28;20039;-70
2021/12/12 07:08:23;;;;;;;29.33;12.68;;;2.10;99.90;;;;;;5093217;27;20579;-70
2021/12/12 07:10:50;;;;;;;28.40;14.18;;;2.10;99.90;;;;;;5099956;28;20023;-70
2021/12/12 07:13:16;;;;;;;30.55;14.63;;;2.10;99.90;;;;;;5098138;28;20035;-70
2021/12/12 07:15:47;;;;;;;29.73;14.45;;;2.10;99.90;;;;;;5103916;28;20121;-69
2021/12/12 07:18:15;;;;;;;26.15;14.32;;;2.10;99.90;;;;;;5095794;27;20028;-69
2021/12/12 07:20:46;;;;;;;29.63;14.77;;;2.10;99.90;;;;;;5100474;28;20035;-70
2021/12/12 07:23:13;;;;;;;30.60;13.30;;;2.20;99.90;;;;;;5093196;27;20027;-70
2021/12/12 07:25:42;;;;;;;29.67;13.32;;;2.20;99.90;;;;;;5107155;28;20047;-70
2021/12/12 07:28:08;;;;;;;30.17;13.57;;;2.20;99.90;;;;;;5099109;28;20378;-70
2021/12/12 07:30:35;;;;;;;32.17;14.13;;;2.20;99.90;;;;;;5100133;28;20024;-69
2021/12/12 07:33:03;;;;;;;27.20;14.05;;;2.20;99.90;;;;;;5097275;28;20055;-70
2021/12/12 07:35:31;;;;;;;27.25;13.77;;;2.20;99.90;;;;;;5102877;28;20762;-70
2021/12/12 07:37:58;;;;;;;25.02;14.07;;;2.20;99.90;;;;;;5102059;27;20053;-69
2021/12/12 07:40:23;;;;;;;30.20;14.40;;;2.20;99.90;;;;;;5102844;28;20020;-70
2021/12/12 07:42:52;;;;;;;35.90;14.35;;;2.20;99.90;;;;;;5096211;28;20047;-70
2021/12/12 07:45:23;;;;;;;32.13;14.88;;;2.20;99.90;;;;;;5099526;28;20028;-70
2021/12/12 07:47:51;;;;;;;28.05;15.05;;;2.20;99.90;;;;;;5096605;28;20381;-69
2021/12/12 07:50:19;;;;;;;36.55;15.35;;;2.20;99.90;;;;;;5101987;27;20085;-70
2021/12/12 07:52:46;;;;;;;42.17;20.40;;;2.20;99.90;;;;;;5099914;27;20412;-69
2021/12/12 07:55:12;;;;;;;37.78;20.45;;;2.30;99.90;;;;;;5099651;28;20020;-70
2021/12/12 07:57:37;;;;;;;40.33;15.50;;;2.30;99.90;;;;;;5096289;28;21482;-70
2021/12/12 08:00:13;;;;;;;29.98;16.42;;;2.30;99.90;;;;;;5098021;28;20123;-70
2021/12/12 08:02:40;;;;;;;43.78;18.23;;;;;;;;;;5099226;28;20055;-69
2021/12/12 08:05:07;;;;;;;39.08;20.45;;;2.30;99.90;;;;;;5098548;28;20602;-70
2021/12/12 08:07:36;;;;;;;32.10;17.52;;;2.30;99.90;;;;;;5096961;28;20063;-70
2021/12/12 08:10:05;;;;;;;30.95;15.70;;;2.40;99.90;;;;;;5096628;27;20197;-70
2021/12/12 08:12:31;;;;;;;37.42;17.50;;;2.40;99.90;;;;;;5101480;27;20466;-69
2021/12/12 08:14:57;;;;;;;35.90;16.33;;;2.40;99.90;;;;;;4746412;28;9999973;-70
2021/12/12 08:17:25;;;;;;;34.67;15.18;;;2.40;99.90;;;;;;5098567;28;20113;-69
2021/12/12 08:19:52;;;;;;;32.75;15.05;;;;;;;;;;5102488;28;20028;-70
2021/12/12 08:22:18;;;;;;;28.15;14.02;;;2.40;99.90;;;;;;5092558;28;20055;-70
2021/12/12 08:24:45;;;;;;;30.80;14.70;;;2.40;99.90;;;;;;5104380;28;20035;-70
2021/12/12 08:27:11;;;;;;;32.45;16.30;;;2.40;99.90;;;;;;5092565;28;20134;-70
2021/12/12 08:29:37;;;;;;;38.25;16.30;;;2.40;99.90;;;;;;5090383;28;20424;-69
2021/12/12 08:32:08;;;;;;;34.03;15.25;;;2.40;99.90;;;;;;5101486;28;20488;-69
2021/12/12 08:34:34;;;;;;;28.35;13.63;;;2.40;99.90;;;;;;5083590;28;20048;-70
2021/12/12 08:37:01;;;;;;;26.90;14.13;;;2.40;99.90;;;;;;5081799;28;20032;-70
2021/12/12 08:39:28;;;;;;;35.08;13.75;;;2.50;99.90;;;;;;5085299;28;20036;-69
2021/12/12 08:41:55;;;;;;;29.90;12.68;;;2.50;99.90;;;;;;5079409;28;20036;-70
2021/12/12 08:44:22;;;;;;;29.92;13.02;;;2.50;99.90;;;;;;5082631;28;20193;-71
2021/12/12 08:46:50;;;;;;;28.77;12.48;;;2.50;99.90;;;;;;5069409;28;20481;-70
2021/12/12 08:49:18;;;;;;;29.92;13.05;;;2.50;99.90;;;;;;5084552;28;20036;-70
2021/12/12 08:51:50;;;;;;;31.50;13.05;;;2.50;99.90;;;;;;5088884;28;20028;-72
2021/12/12 08:54:25;;;;;;;28.20;12.70;;;2.50;99.90;;;;;;5084856;28;20032;-71
2021/12/12 08:57:02;;;;;;;32.20;13.07;;;2.60;99.90;;;;;;5088358;28;20345;-70
2021/12/12 08:59:27;;;;;;;30.48;13.60;;;2.50;99.90;;;;;;5081276;28;20062;-71
2021/12/12 09:01:58;;;;;;;34.80;14.57;;;2.50;99.90;;;;;;5088465;28;20481;-71
2021/12/12 09:04:29;;;;;;;26.60;13.20;;;2.50;99.90;;;;;;5068420;28;20037;-71
2021/12/12 09:07:05;;;;;;;22.70;12.82;;;2.50;99.90;;;;;;5067916;28;20090;-71
2021/12/12 09:09:38;;;;;;;33.22;13.35;;;2.50;99.90;;;;;;5076824;28;20024;-70
2021/12/12 09:12:12;;;;;;;30.73;13.50;;;2.60;99.90;;;;;;5083219;28;20111;-71
2021/12/12 09:14:49;;;;;;;28.85;11.80;;;2.60;99.90;;;;;;5081120;28;20021;-71
2021/12/12 09:17:44;;;;;;;29.73;13.85;;;2.60;99.90;;;;;;5077462;28;20028;-71
2021/12/12 09:20:17;;;;;;;29.02;13.20;;;2.70;99.90;;;;;;5086124;28;20401;-70
2021/12/12 09:22:58;;;;;;;27.10;12.88;;;2.70;99.90;;;;;;5091760;28;20512;-70
2021/12/12 09:25:36;;;;;;;33.55;12.60;;;2.80;99.90;;;;;;5096267;28;20037;-71
2021/12/12 09:28:09;;;;;;;37.22;12.00;;;2.80;99.90;;;;;;5080593;28;20035;-71
2021/12/12 09:30:36;;;;;;;26.38;12.07;;;2.80;99.90;;;;;;5079591;28;20414;-71
2021/12/12 09:33:21;;;;;;;26.38;12.50;;;2.80;99.90;;;;;;5089437;28;20051;-71
2021/12/12 09:35:54;;;;;;;29.33;12.35;;;2.80;99.90;;;;;;5102413;28;20039;-71
2021/12/12 09:38:38;;;;;;;31.70;12.40;;;2.80;99.90;;;;;;5096591;28;20082;-71
2021/12/12 09:41:23;;;;;;;;;;;2.80;99.90;;;;;;5088974;28;20036;-71
2021/12/12 09:44:08;;;;;;;22.48;10.50;;;2.80;99.90;;;;;;5088350;28;19932;-71
2021/12/12 09:47:10;;;;;;;25.27;10.23;;;2.80;99.90;;;;;;5105121;28;20451;-70
2021/12/12 09:53:27;;;;;;;25.90;10.73;;;2.90;99.90;;;;;;5092175;28;20039;-71
2021/12/12 09:56:25;;;;;;;28.65;10.60;;;2.90;99.90;;;;;;5105382;28;20028;-70
2021/12/12 09:59:03;;;;;;;54.50;25.95;;;3.00;99.90;;;;;;5060344;28;20030;-72
2021/12/12 10:01:52;;;;;;;27.13;10.30;;;3.00;99.90;;;;;;5105278;28;20450;-71
2021/12/12 10:04:29;;;;;;;24.35;9.85;;;3.00;99.90;;;;;;5091557;28;20027;-71
2021/12/12 10:07:19;;;;;;;25.20;9.52;;;3.00;99.90;;;;;;5106668;28;20040;-71
2021/12/12 10:09:56;;;;;;;24.42;8.77;;;3.10;99.90;;;;;;5092415;28;20035;-71
2021/12/12 10:12:30;;;;;;;18.15;8.85;;;3.10;99.90;;;;;;5098938;28;20129;-70
2021/12/12 10:14:58;;;;;;;21.50;9.00;;;3.10;99.90;;;;;;4747966;28;9999935;-69
2021/12/12 10:17:47;;;;;;;22.67;9.10;;;3.10;99.90;;;;;;5096119;28;20111;-70
2021/12/12 10:20:31;;;;;;;24.63;10.05;;;3.10;99.90;;;;;;5097043;28;20653;-70
2021/12/12 10:22:56;;;;;;;22.55;10.15;;;3.10;99.90;;;;;;5097483;28;20401;-70
2021/12/12 10:25:29;;;;;;;20.83;8.40;;;3.10;99.90;;;;;;5090004;28;20024;-70
2021/12/12 10:28:14;;;;;;;19.30;8.18;;;3.10;99.90;;;;;;5099849;28;20473;-70
2021/12/12 10:30:44;;;;;;;44.88;21.00;;;3.10;99.90;;;;;;5102569;28;20027;-69
2021/12/12 10:33:16;;;;;;;24.45;11.88;;;3.10;99.90;;;;;;5100852;28;20100;-70
2021/12/12 10:35:52;;;;;;;27.05;11.13;;;3.10;99.90;;;;;;5107308;28;20384;-70
2021/12/12 10:38:38;;;;;;;24.38;9.73;;;3.10;99.90;;;;;;5095802;28;20425;-70
2021/12/12 10:41:13;;;;;;;21.20;10.60;;;3.10;99.90;;;;;;5099247;28;20493;-70
2021/12/12 10:43:50;;;;;;;23.35;9.27;;;3.10;99.90;;;;;;5101360;28;20028;-70
2021/12/12 10:46:31;;;;;;;19.33;9.98;;;3.10;99.90;;;;;;5106806;28;20679;-70
2021/12/12 10:49:07;;;;;;;22.75;10.82;;;3.00;99.90;;;;;;5102476;28;20521;-70
2021/12/12 10:51:43;;;;;;;26.33;12.00;;;3.00;99.90;;;;;;5103953;28;20658;-70
2021/12/12 10:54:13;;;;;;;22.70;10.25;;;3.00;99.90;;;;;;5103683;28;20042;-71
2021/12/12 10:56:52;;;;;;;29.05;11.15;;;3.00;99.90;;;;;;5102993;28;20474;-71
2021/12/12 10:59:27;;;;;;;27.88;11.63;;;3.00;99.90;;;;;;5098976;28;20038;-70
2021/12/12 11:01:57;;;;;;;29.00;12.43;;;3.00;99.90;;;;;;5097726;28;20028;-70
2021/12/12 11:04:33;;;;;;;21.50;11.05;;;3.00;99.90;;;;;;5105702;28;20027;-70
2021/12/12 11:07:04;;;;;;;29.40;14.45;;;3.00;99.90;;;;;;5101347;28;20035;-69
2021/12/12 11:09:42;;;;;;;27.08;14.27;;;3.00;99.90;;;;;;5102478;28;20596;-70
2021/12/12 11:12:13;;;;;;;24.35;12.52;;;3.00;99.90;;;;;;5102463;28;20020;-70
2021/12/12 11:15:08;;;;;;;20.48;11.65;;;3.00;99.90;;;;;;5100563;28;20035;-70
2021/12/12 11:17:41;;;;;;;28.25;14.90;;;3.00;99.90;;;;;;5101945;28;20043;-70
2021/12/12 11:20:37;;;;;;;25.40;12.55;;;3.00;99.90;;;;;;5099782;28;20080;-71
2021/12/12 11:23:28;;;;;;;29.30;12.85;;;3.00;99.90;;;;;;5097267;28;20439;-70
2021/12/12 11:26:04;;;;;;;26.80;12.07;;;3.00;99.90;;;;;;5087532;28;20556;-70
2021/12/12 11:28:33;;;;;;;50.10;21.83;;;3.00;99.90;;;;;;5097851;28;20119;-70
2021/12/12 11:31:05;;;;;;;26.08;12.35;;;3.00;99.90;;;;;;5093601;28;20166;-71
2021/12/12 11:33:33;;;;;;;24.33;11.95;;;3.00;99.90;;;;;;5089296;28;20055;-71
2021/12/12 11:36:02;;;;;;;25.98;12.80;;;3.00;99.90;;;;;;5093621;28;20032;-70
2021/12/12 11:38:30;;;;;;;24.67;11.55;;;3.00;99.90;;;;;;5096879;27;20032;-70
2021/12/12 11:41:08;;;;;;;25.15;12.27;;;3.00;99.90;;;;;;5094881;28;20027;-70
2021/12/12 11:43:49;;;;;;;25.90;12.80;;;3.10;99.90;;;;;;5098050;27;20024;-70
2021/12/12 11:46:24;;;;;;;28.63;13.55;;;3.00;99.90;;;;;;5091224;28;20024;-71
2021/12/12 11:49:02;;;;;;;22.73;11.85;;;3.00;99.90;;;;;;5099817;28;20032;-71
2021/12/12 11:51:36;;;;;;;21.52;11.43;;;3.10;99.90;;;;;;5095304;28;20453;-70
2021/12/12 11:54:37;;;;;;;25.83;13.05;;;3.00;99.90;;;;;;5102460;28;20024;-71
2021/12/12 11:57:45;;;;;;;22.80;12.48;;;3.10;99.90;;;;;;5029288;28;20124;-71
2021/12/12 12:00:21;;;;;;;27.30;13.25;;;3.10;99.90;;;;;;5054043;28;20046;-71
2021/12/12 12:03:21;;;;;;;29.80;15.32;;;3.10;99.90;;;;;;5097702;28;20059;-71
2021/12/12 12:05:59;;;;;;;32.22;15.38;;;3.10;99.90;;;;;;5099915;28;20028;-71
2021/12/12 12:08:56;;;;;;;24.83;15.10;;;3.10;99.90;;;;;;5099718;27;20084;-72
2021/12/12 12:11:40;;;;;;;21.40;13.43;;;3.10;99.90;;;;;;5084626;28;20035;-71
2021/12/12 12:14:34;;;;;;;24.02;13.38;;;3.10;99.90;;;;;;5092517;28;20024;-71
2021/12/12 12:17:29;;;;;;;28.25;12.40;;;3.10;99.90;;;;;;5089618;28;20037;-70
2021/12/12 12:20:16;;;;;;;23.98;11.98;;;3.20;99.90;;;;;;5097727;28;20047;-70
2021/12/12 12:23:01;;;;;;;24.80;12.55;;;3.20;99.90;;;;;;5097212;28;20117;-71
2021/12/12 12:28:37;;;;;;;24.80;14.43;;;3.20;99.90;;;;;;5100308;28;20034;-70
2021/12/12 12:31:39;;;;;;;22.27;13.75;;;3.20;99.90;;;;;;5103987;28;20031;-71
2021/12/12 12:34:36;;;;;;;21.73;13.75;;;3.20;99.90;;;;;;5097235;28;20070;-70
2021/12/12 12:37:39;;;;;;;25.23;13.85;;;3.30;99.90;;;;;;5089559;28;20055;-71
2021/12/12 12:40:43;;;;;;;27.50;12.50;;;3.30;99.90;;;;;;5096411;28;20032;-70
2021/12/12 12:43:42;;;;;;;24.13;12.70;;;3.30;99.90;;;;;;5095081;28;20052;-70
2021/12/12 12:46:26;;;;;;;22.90;13.80;;;3.30;99.90;;;;;;5098826;28;20032;-70
2021/12/12 12:49:11;;;;;;;23.27;13.65;;;3.40;99.90;;;;;;5098713;28;20131;-71
2021/12/12 12:52:06;;;;;;;24.95;13.52;;;3.40;99.90;;;;;;5100084;28;20028;-70
2021/12/12 12:54:45;;;;;;;23.15;15.35;;;3.40;99.90;;;;;;5094280;28;20030;-70
2021/12/12 12:57:22;;;;;;;23.95;14.13;;;3.40;99.90;;;;;;5100163;28;20031;-70
2021/12/12 13:00:07;;;;;;;28.90;14.02;;;3.40;99.90;;;;;;5100146;28;20020;-71
2021/12/12 13:03:09;;;;;;;23.23;14.88;;;3.40;99.90;;;;;;5099681;28;20074;-71
2021/12/12 13:06:02;;;;;;;27.73;14.93;;;3.40;99.90;;;;;;5095008;28;20027;-71
2021/12/12 13:08:50;;;;;;;32.95;15.57;;;3.40;99.90;;;;;;5094533;28;20665;-71
2021/12/12 13:11:21;;;;;;;28.30;14.35;;;3.40;99.90;;;;;;5102388;28;20388;-71
2021/12/12 13:14:17;;;;;;;29.70;18.02;;;3.50;99.90;;;;;;5098005;28;20030;-70
2021/12/12 13:17:09;;;;;;;27.15;17.20;;;3.50;99.90;;;;;;5097493;28;20027;-71
2021/12/12 13:20:03;;;;;;;33.17;15.93;;;3.50;99.90;;;;;;5101346;28;20040;-71
2021/12/12 13:22:43;;;;;;;;;;;3.50;99.90;;;;;;5093895;28;20027;-71
2021/12/12 13:25:34;;;;;;;30.92;16.33;;;3.40;99.90;;;;;;5104321;28;19951;-71
2021/12/12 13:28:26;;;;;;;28.75;17.58;;;3.40;99.90;;;;;;5099836;28;20431;-71
2021/12/12 13:31:39;;;;;;;28.05;17.25;;;3.50;99.90;;;;;;5105664;28;20059;-70
2021/12/12 13:34:19;;;;;;;29.48;16.05;;;3.40;99.90;;;;;;5098780;28;20055;-70
2021/12/12 13:37:03;;;;;;;24.77;15.15;;;3.50;99.90;;;;;;5078580;28;20032;-70
2021/12/12 13:39:43;;;;;;;24.92;16.50;;;3.40;99.90;;;;;;5094737;28;20158;-71